createdAt,value
2024-01-06T00:05:00.736Z,1.60
2024-01-06T00:10:04.906Z,1.48
2024-01-06T00:15:07.722Z,1.40
2024-01-06T00:20:10.252Z,1.39
2024-01-06T00:25:12.967Z,1.39
2024-01-06T00:30:15.124Z,1.39
2024-01-06T00:35:17.034Z,1.35
2024-01-06T00:40:20.208Z,1.34
2024-01-06T00:45:23.828Z,1.33
2024-01-06T00:50:25.901Z,1.31
2024-01-06T00:55:28.067Z,1.30
2024-01-06T01:00:29.996Z,1.30
2024-01-06T01:05:31.973Z,1.29
2024-01-06T01:10:34.067Z,1.33
2024-01-06T01:15:36.208Z,1.37
2024-01-06T01:20:38.100Z,1.33
2024-01-06T01:25:40.205Z,1.33
2024-01-06T01:30:42.236Z,1.33
2024-01-06T01:35:44.175Z,1.33
2024-01-06T01:40:46.176Z,1.30
2024-01-06T01:45:55.410Z,1.27
2024-01-06T01:50:57.824Z,1.31
2024-01-06T01:56:00.536Z,1.36
2024-01-06T02:01:03.146Z,1.33
2024-01-06T02:06:05.303Z,1.31
2024-01-06T02:11:07.411Z,1.30
2024-01-06T02:16:09.234Z,1.31
2024-01-06T02:21:11.918Z,1.33
2024-01-06T02:26:15.995Z,1.35
2024-01-06T02:31:18.079Z,1.29
2024-01-06T02:36:20.194Z,1.27
2024-01-06T02:41:22.191Z,1.27
2024-01-06T02:46:24.180Z,1.30
2024-01-06T02:51:26.311Z,1.31
2024-01-06T02:56:28.391Z,1.31
2024-01-06T03:01:30.287Z,1.33
2024-01-06T03:06:32.420Z,1.37
2024-01-06T03:11:34.413Z,1.39
2024-01-06T03:16:36.518Z,1.43
2024-01-06T03:21:38.456Z,1.45
2024-01-06T03:26:40.604Z,1.53
2024-01-06T03:31:47.002Z,1.49
2024-01-06T03:36:49.110Z,1.42
2024-01-06T03:41:51.378Z,1.40
2024-01-06T03:46:53.484Z,1.41
2024-01-06T03:51:55.572Z,1.45
2024-01-06T03:56:57.747Z,1.46
2024-01-06T04:01:59.852Z,1.48
2024-01-06T04:07:02.685Z,1.56
2024-01-06T04:12:04.741Z,1.65
2024-01-06T04:17:06.663Z,1.71
2024-01-06T04:22:08.667Z,1.74
2024-01-06T04:27:11.274Z,1.78
2024-01-06T04:32:13.328Z,1.85
2024-01-06T04:37:16.065Z,1.94
2024-01-06T04:42:18.108Z,2.02
2024-01-06T04:47:20.494Z,2.12
2024-01-06T04:52:22.454Z,2.15
2024-01-06T04:57:24.686Z,2.17
2024-01-06T05:02:27.525Z,2.18
2024-01-06T05:07:29.391Z,2.21
2024-01-06T05:12:31.428Z,2.17
2024-01-06T05:17:33.552Z,2.10
2024-01-06T05:22:35.733Z,2.04
2024-01-06T05:27:37.780Z,2.04
2024-01-06T05:32:39.884Z,2.08
2024-01-06T05:37:41.909Z,2.12
2024-01-06T05:42:43.973Z,2.15
2024-01-06T05:47:46.097Z,2.16
2024-01-06T05:52:49.741Z,2.17
2024-01-06T05:57:51.841Z,2.19
2024-01-06T06:02:54.057Z,2.22
2024-01-06T06:07:56.088Z,2.24
2024-01-06T06:12:58.211Z,2.29
2024-01-06T06:18:02.901Z,2.34
2024-01-06T06:23:04.951Z,2.37
2024-01-06T06:28:07.698Z,2.40
2024-01-06T06:33:09.962Z,2.42
2024-01-06T06:38:11.900Z,2.48
2024-01-06T06:43:16.358Z,2.54
2024-01-06T06:48:19.693Z,2.64
2024-01-06T06:53:22.101Z,2.69
2024-01-06T06:58:23.957Z,2.66
2024-01-06T07:03:28.076Z,2.67
2024-01-06T07:08:30.099Z,2.68
2024-01-06T07:13:32.162Z,2.68
2024-01-06T07:18:34.411Z,2.65
2024-01-06T07:23:36.556Z,2.62
2024-01-06T07:28:38.783Z,2.67
2024-01-06T07:33:41.257Z,2.74
2024-01-06T07:38:43.669Z,2.82
2024-01-06T07:43:45.624Z,2.89
2024-01-06T07:48:47.615Z,2.95
2024-01-06T07:53:49.702Z,3.03
2024-01-06T07:58:51.682Z,3.09
2024-01-06T08:03:53.655Z,3.15
2024-01-06T08:08:56.207Z,3.18
2024-01-06T08:13:58.282Z,3.20
2024-01-06T08:19:01.158Z,3.23
2024-01-06T08:24:03.621Z,3.27
2024-01-06T08:29:05.569Z,3.35
2024-01-06T08:34:09.372Z,3.44
2024-01-06T08:39:18.315Z,3.55
2024-01-06T08:44:20.206Z,3.60
2024-01-06T08:49:22.176Z,3.62
2024-01-06T08:54:24.279Z,3.61
2024-01-06T08:59:26.391Z,3.62
2024-01-06T09:04:28.579Z,3.66
2024-01-06T09:09:31.528Z,3.67
2024-01-06T09:14:33.688Z,3.65
2024-01-06T09:19:36.166Z,3.61
2024-01-06T09:24:38.028Z,3.60
2024-01-06T09:29:39.944Z,3.65
2024-01-06T09:34:42.171Z,3.66
2024-01-06T09:39:44.457Z,3.66
2024-01-06T09:44:46.440Z,3.69
2024-01-06T09:49:50.657Z,3.74
2024-01-06T09:54:55.099Z,3.76
2024-01-06T09:59:58.376Z,3.78
2024-01-06T10:05:00.506Z,3.80
2024-01-06T10:10:02.814Z,3.81
2024-01-06T10:15:04.933Z,3.83
2024-01-06T10:20:12.204Z,3.87
2024-01-06T10:25:15.008Z,3.91
2024-01-06T10:30:19.550Z,3.94
2024-01-06T10:35:21.737Z,3.94
2024-01-06T10:40:23.822Z,3.96
2024-01-06T10:45:26.505Z,4.00
2024-01-06T10:50:29.990Z,4.05
2024-01-06T10:55:33.046Z,4.07
2024-01-06T11:00:35.044Z,4.09
2024-01-06T11:05:38.254Z,4.15
2024-01-06T11:10:41.564Z,4.27
2024-01-06T11:15:45.656Z,4.40
2024-01-06T11:21:13.940Z,4.50
2024-01-06T11:26:16.344Z,4.62
2024-01-06T11:31:19.883Z,4.70
2024-01-06T11:36:21.968Z,4.73
2024-01-06T11:41:48.733Z,4.79
2024-01-06T11:46:51.188Z,4.82
2024-01-06T11:51:54.184Z,4.83
2024-01-06T11:56:57.312Z,4.82
2024-01-06T12:01:59.606Z,4.85
2024-01-06T12:07:08.491Z,4.89
2024-01-06T12:12:16.269Z,4.91
2024-01-06T12:17:18.377Z,4.89
2024-01-06T12:22:20.533Z,4.81
2024-01-06T12:27:23.042Z,4.75
2024-01-06T12:32:26.625Z,4.72
2024-01-06T12:37:29.002Z,4.70
2024-01-06T12:42:31.112Z,4.67
2024-01-06T12:47:34.129Z,4.66
2024-01-06T12:52:36.427Z,4.65
2024-01-06T12:57:38.501Z,4.61
2024-01-06T13:02:40.572Z,4.59
2024-01-06T13:07:42.582Z,4.56
2024-01-06T13:12:44.790Z,4.55
2024-01-06T13:17:47.890Z,4.53
2024-01-06T13:22:49.980Z,4.49
2024-01-06T13:27:53.120Z,4.44
2024-01-06T13:32:55.917Z,4.39
2024-01-06T13:37:58.279Z,4.36
2024-01-06T13:43:00.373Z,4.31
2024-01-06T13:48:04.855Z,4.28
2024-01-06T13:53:08.847Z,4.25
2024-01-06T13:58:10.833Z,4.21
2024-01-06T14:03:13.305Z,4.13
2024-01-06T14:08:15.516Z,4.03
2024-01-06T14:13:18.063Z,3.92
2024-01-06T14:18:20.199Z,3.83
2024-01-06T14:23:22.754Z,3.74
2024-01-06T14:28:25.009Z,3.64
2024-01-06T14:33:28.663Z,3.57
2024-01-06T14:38:30.658Z,3.51
2024-01-06T14:43:32.911Z,3.46
2024-01-06T14:48:35.271Z,3.41
2024-01-06T14:53:37.625Z,3.32
2024-01-06T14:58:39.571Z,3.24
2024-01-06T15:03:41.747Z,3.16
2024-01-06T15:08:43.981Z,3.08
2024-01-06T15:13:46.809Z,3.03
2024-01-06T15:18:48.856Z,2.99
2024-01-06T15:23:50.968Z,2.95
2024-01-06T15:28:53.009Z,2.93
2024-01-06T15:33:56.787Z,2.92
2024-01-06T15:38:58.809Z,2.92
2024-01-06T15:44:00.646Z,2.91
2024-01-06T15:49:04.175Z,2.89
2024-01-06T15:54:06.243Z,2.94
2024-01-06T15:59:08.935Z,2.97
2024-01-06T16:04:11.179Z,2.90
2024-01-06T16:09:13.501Z,2.81
2024-01-06T16:14:15.518Z,2.72
2024-01-06T16:19:17.518Z,2.65
2024-01-06T16:24:20.020Z,2.59
2024-01-06T16:29:22.340Z,2.53
2024-01-06T16:34:24.425Z,2.51
2024-01-06T16:39:28.689Z,2.50
2024-01-06T16:44:32.589Z,2.47
2024-01-06T16:49:36.264Z,2.38
2024-01-06T16:54:38.909Z,2.30
2024-01-06T16:59:43.172Z,2.23
2024-01-06T17:04:45.310Z,2.15
2024-01-06T17:09:47.796Z,2.09
2024-01-06T17:14:50.176Z,2.02
2024-01-06T17:19:55.639Z,1.95
2024-01-06T17:24:58.238Z,1.89
2024-01-06T17:30:00.420Z,1.81
2024-01-06T17:35:04.380Z,1.76
2024-01-06T17:40:08.216Z,1.72
2024-01-06T17:45:11.943Z,1.65
2024-01-06T17:50:14.229Z,1.59
2024-01-06T17:55:17.350Z,1.55
2024-01-06T18:00:21.804Z,1.49
2024-01-06T18:05:24.010Z,1.44
2024-01-06T18:10:26.162Z,1.40
2024-01-06T18:15:31.637Z,1.35
2024-01-06T18:20:35.632Z,1.32
2024-01-06T18:25:37.903Z,1.28
2024-01-06T18:30:39.960Z,1.27
2024-01-06T18:35:42.040Z,1.26
2024-01-06T18:40:44.107Z,1.23
2024-01-06T18:45:46.996Z,1.22
2024-01-06T18:50:49.415Z,1.22
2024-01-06T18:55:51.845Z,1.20
2024-01-06T19:00:55.708Z,1.19
2024-01-06T19:05:58.178Z,1.14
2024-01-06T19:11:01.707Z,1.10
2024-01-06T19:16:03.994Z,1.08
2024-01-06T19:21:11.381Z,1.07
2024-01-06T19:26:13.876Z,1.03
2024-01-06T19:31:17.797Z,0.98
2024-01-06T19:36:19.967Z,0.93
2024-01-06T19:41:22.291Z,0.90
2024-01-06T19:46:25.035Z,0.89
2024-01-06T19:51:32.654Z,0.87
2024-01-06T19:56:35.108Z,0.84
2024-01-06T20:01:37.631Z,0.82
2024-01-06T20:06:39.937Z,0.81
2024-01-06T20:11:42.713Z,0.78
2024-01-06T20:16:46.392Z,0.76
2024-01-06T20:21:49.040Z,0.72
2024-01-06T20:26:53.544Z,0.70
2024-01-06T20:31:58.125Z,0.66
2024-01-06T20:37:00.657Z,0.69
2024-01-06T20:42:07.325Z,0.69
2024-01-06T20:47:10.031Z,0.68
2024-01-06T20:52:12.127Z,0.66
2024-01-06T20:57:14.886Z,0.61
2024-01-06T21:02:18.871Z,0.55
2024-01-06T21:07:21.152Z,0.50
2024-01-06T21:12:24.003Z,0.49
2024-01-06T21:17:27.165Z,0.49
2024-01-06T21:22:30.395Z,0.47
2024-01-06T21:27:34.192Z,0.44
2024-01-06T21:32:39.188Z,0.40
2024-01-06T21:37:41.833Z,0.38
2024-01-06T21:42:44.805Z,0.36
2024-01-06T21:47:47.112Z,0.35
2024-01-06T21:52:49.486Z,0.32
2024-01-06T21:57:51.360Z,0.25
2024-01-06T22:02:53.659Z,0.15
2024-01-06T22:08:00.697Z,0.03
2024-01-06T22:13:03.429Z,-0.02
2024-01-06T22:18:06.163Z,0.02
2024-01-06T22:23:08.379Z,0.02
2024-01-06T22:28:11.463Z,0.00
2024-01-06T22:33:16.773Z,-0.05
2024-01-06T22:38:18.954Z,-0.08
2024-01-06T22:43:25.403Z,-0.11
2024-01-06T22:48:27.526Z,-0.12
2024-01-06T22:53:29.710Z,-0.13
2024-01-06T22:58:34.247Z,-0.13
2024-01-06T23:03:36.520Z,-0.15
2024-01-06T23:08:38.676Z,-0.18
2024-01-06T23:13:41.561Z,-0.23
2024-01-06T23:18:43.755Z,-0.27
2024-01-06T23:23:46.955Z,-0.30
2024-01-06T23:28:48.873Z,-0.34
2024-01-06T23:33:50.922Z,-0.42
2024-01-06T23:38:53.406Z,-0.47
2024-01-06T23:43:55.434Z,-0.47
2024-01-06T23:48:57.849Z,-0.44
2024-01-06T23:53:59.902Z,-0.43
2024-01-06T23:59:02.728Z,-0.48
